Nestor — V2FB3 — position and weather

sailwx.info

Track history (hours):
 
Tides and Currents Weather Stations Pressure Air Temp Water Temp Dewpoint Dewpoint Depression Visibility Wind Speed Wind Dir Waves Ship Positions

Nestor

Last reported at 2015-Mar-02 13:08 UTC. Time now 2015-Mar-02 19:06 UTC.
Position N 54°02' W 006°08'.

Length 88 m; draft 3.5 m.

Type: Ship. MMSI: 305620000.

Date/timePositionNaut miles runAvg speedWind from/ knotsBaromVisibWave heightAir tempDewpointWater temp
2015-Mar-02 13:08N 54°02' W 006°08'0 0.0
2015-Mar-02 12:04N 54°02' W 006°08'0 0.9
2015-Mar-02 11:31N 54°02' W 006°07'5 1.6
2015-Mar-02 08:24N 53°60' W 005°60'300 6.8
2015-Feb-28 12:33N 48°59' W 006°07'19 9.7
2015-Feb-28 10:34N 48°40' W 006°10'10 9.9
2015-Feb-28 09:33N 48°30' W 006°12'26 8.6
2015-Feb-28 06:33N 48°07' W 005°55'  
2015-Feb-24 21:32N 43°22' W 003°04'0 0.0
2015-Feb-24 20:32N 43°22' W 003°04'  
2015-Feb-21 20:33N 43°24' W 003°10'0 0.3
2015-Feb-21 19:33N 43°24' W 003°10'1 1.3
2015-Feb-21 18:33N 43°24' W 003°08'3 2.9
2015-Feb-21 17:33N 43°26' W 003°11'2 1.7
2015-Feb-21 16:33N 43°27' W 003°13'1 1.0
2015-Feb-21 15:34N 43°26' W 003°12'1 0.8
2015-Feb-21 14:33N 43°26' W 003°12'1 0.6
2015-Feb-21 13:33N 43°25' W 003°11'  
Track history (hours):
 
Tides and Currents Weather Stations Pressure Air Temp Water Temp Dewpoint Dewpoint Depression Visibility Wind Speed Wind Dir Waves Ship Positions

Nestor

Last reported at 2015-Mar-02 13:08 UTC. Time now 2015-Mar-02 19:06 UTC.
Position N 54°02' W 006°08'.

Length 88 m; draft 3.5 m.

Type: Ship. MMSI: 305620000.

Date/timePositionNaut miles runAvg speedWind from/ knotsBaromVisibWave heightAir tempDewpointWater temp
2015-Mar-02 13:08N 54°02' W 006°08'0 0.0
2015-Mar-02 12:04N 54°02' W 006°08'0 0.9
2015-Mar-02 11:31N 54°02' W 006°07'5 1.6
2015-Mar-02 08:24N 53°60' W 005°60'300 6.8
2015-Feb-28 12:33N 48°59' W 006°07'19 9.7
2015-Feb-28 10:34N 48°40' W 006°10'10 9.9
2015-Feb-28 09:33N 48°30' W 006°12'26 8.6
2015-Feb-28 06:33N 48°07' W 005°55'  
2015-Feb-24 21:32N 43°22' W 003°04'0 0.0
2015-Feb-24 20:32N 43°22' W 003°04'  
2015-Feb-21 20:33N 43°24' W 003°10'0 0.3
2015-Feb-21 19:33N 43°24' W 003°10'1 1.3
2015-Feb-21 18:33N 43°24' W 003°08'3 2.9
2015-Feb-21 17:33N 43°26' W 003°11'2 1.7
2015-Feb-21 16:33N 43°27' W 003°13'1 1.0
2015-Feb-21 15:34N 43°26' W 003°12'1 0.8
2015-Feb-21 14:33N 43°26' W 003°12'1 0.6
2015-Feb-21 13:33N 43°25' W 003°11'  

Dump ship's entire track history